createdAt,value
2023-05-21T00:02:18.764Z,3.38
2023-05-21T00:04:45.377Z,2.80
2023-05-21T00:07:12.645Z,3.10
2023-05-21T00:09:39.544Z,3.30
2023-05-21T00:12:07.177Z,3.10
2023-05-21T00:14:34.253Z,3.40
2023-05-21T00:17:00.726Z,3.45
2023-05-21T00:19:27.342Z,3.22
2023-05-21T00:21:54.722Z,3.35
2023-05-21T00:24:21.231Z,2.92
2023-05-21T00:26:47.665Z,3.72
2023-05-21T00:29:14.097Z,3.35
2023-05-21T00:31:40.573Z,3.45
2023-05-21T00:34:06.956Z,3.05
2023-05-21T00:36:34.644Z,3.15
2023-05-21T00:39:02.312Z,3.38
2023-05-21T00:41:30.134Z,3.20
2023-05-21T00:43:57.116Z,3.78
2023-05-21T00:46:23.965Z,3.70
2023-05-21T00:48:51.025Z,3.58
2023-05-21T00:51:18.467Z,3.30
2023-05-21T00:53:45.898Z,3.50
2023-05-21T00:56:12.457Z,3.40
2023-05-21T00:58:39.732Z,3.67
2023-05-21T01:01:06.728Z,3.60
2023-05-21T01:03:38.574Z,3.50
2023-05-21T01:06:06.800Z,4.50
2023-05-21T01:08:35.050Z,3.53
2023-05-21T01:11:03.112Z,3.63
2023-05-21T01:13:31.387Z,3.28
2023-05-21T01:15:59.158Z,3.70
2023-05-21T01:18:26.767Z,4.05
2023-05-21T01:20:53.580Z,3.65
2023-05-21T01:23:20.576Z,3.67
2023-05-21T01:25:47.271Z,4.13
2023-05-21T01:28:14.050Z,3.65
2023-05-21T01:30:42.780Z,3.90
2023-05-21T01:33:17.412Z,4.25
2023-05-21T01:35:46.811Z,4.15
2023-05-21T01:38:29.283Z,4.35
2023-05-21T01:41:03.506Z,4.07
2023-05-21T01:43:33.897Z,4.28
2023-05-21T01:46:01.756Z,4.28
2023-05-21T01:48:29.523Z,4.18
2023-05-21T01:51:00.066Z,4.03
2023-05-21T01:53:26.516Z,4.03
2023-05-21T01:55:54.519Z,4.57
2023-05-21T01:58:21.519Z,3.88
2023-05-21T02:00:47.998Z,4.72
2023-05-21T02:03:17.106Z,4.03
2023-05-21T02:05:43.663Z,3.70
2023-05-21T02:08:10.128Z,3.88
2023-05-21T02:10:36.837Z,4.60
2023-05-21T02:13:03.496Z,4.35
2023-05-21T02:15:30.321Z,4.30
2023-05-21T02:17:58.405Z,4.53
2023-05-21T02:20:25.064Z,4.45
2023-05-21T02:22:51.555Z,4.63
2023-05-21T02:25:19.753Z,4.43
2023-05-21T02:27:46.954Z,4.32
2023-05-21T02:30:16.228Z,4.50
2023-05-21T02:32:43.302Z,4.30
2023-05-21T02:35:11.533Z,4.60
2023-05-21T02:37:40.269Z,4.05
2023-05-21T02:40:08.141Z,5.47
2023-05-21T02:42:34.541Z,4.00
2023-05-21T02:45:00.986Z,4.30
2023-05-21T02:47:27.484Z,4.32
2023-05-21T02:49:54.103Z,4.80
2023-05-21T02:52:23.916Z,4.57
2023-05-21T02:54:50.508Z,4.30
2023-05-21T02:57:18.252Z,4.85
2023-05-21T02:59:45.833Z,4.65
2023-05-21T03:02:12.409Z,4.28
2023-05-21T03:04:39.212Z,4.68
2023-05-21T03:07:06.045Z,4.32
2023-05-21T03:09:32.484Z,4.38
2023-05-21T03:11:58.903Z,4.55
2023-05-21T03:14:25.298Z,4.10
2023-05-21T03:16:51.740Z,4.55
2023-05-21T03:19:18.237Z,4.32
2023-05-21T03:21:44.714Z,4.90
2023-05-21T03:24:13.582Z,4.53
2023-05-21T03:26:40.016Z,4.55
2023-05-21T03:29:06.446Z,4.18
2023-05-21T03:31:32.902Z,4.47
2023-05-21T03:33:59.351Z,4.25
2023-05-21T03:36:25.831Z,4.28
2023-05-21T03:38:52.271Z,4.15
2023-05-21T03:41:18.682Z,4.18
2023-05-21T03:43:45.246Z,4.20
2023-05-21T03:46:11.654Z,4.50
2023-05-21T03:48:38.101Z,4.03
2023-05-21T03:51:04.517Z,4.70
2023-05-21T03:53:30.983Z,4.80
2023-05-21T03:55:57.349Z,4.30
2023-05-21T03:58:24.278Z,4.10
2023-05-21T04:00:51.003Z,4.38
2023-05-21T04:03:18.102Z,4.47
2023-05-21T04:05:44.841Z,4.50
2023-05-21T04:08:11.637Z,4.32
2023-05-21T04:10:38.016Z,4.53
2023-05-21T04:13:04.452Z,4.55
2023-05-21T04:15:31.094Z,4.18
2023-05-21T04:17:58.584Z,4.10
2023-05-21T04:20:25.018Z,4.20
2023-05-21T04:22:51.985Z,4.38
2023-05-21T04:25:20.336Z,4.40
2023-05-21T04:27:47.733Z,4.40
2023-05-21T04:32:40.625Z,4.47
2023-05-21T04:35:09.998Z,4.40
2023-05-21T04:37:36.394Z,4.20
2023-05-21T04:40:03.149Z,4.03
2023-05-21T04:42:30.347Z,4.55
2023-05-21T04:44:59.286Z,4.32
2023-05-21T04:47:25.765Z,4.25
2023-05-21T04:49:53.342Z,4.57
2023-05-21T04:52:19.861Z,4.03
2023-05-21T04:54:47.821Z,4.20
2023-05-21T04:57:14.288Z,4.60
2023-05-21T04:59:41.369Z,4.38
2023-05-21T05:02:07.759Z,4.45
2023-05-21T05:04:34.195Z,4.43
2023-05-21T05:07:00.640Z,4.40
2023-05-21T05:09:27.112Z,4.90
2023-05-21T05:11:53.558Z,4.63
2023-05-21T05:14:19.915Z,4.57
2023-05-21T05:16:48.289Z,4.40
2023-05-21T05:19:14.943Z,4.75
2023-05-21T05:21:41.634Z,4.50
2023-05-21T05:24:08.025Z,4.65
2023-05-21T05:26:34.486Z,4.47
2023-05-21T05:29:01.006Z,4.10
2023-05-21T05:31:27.498Z,4.28
2023-05-21T05:33:53.994Z,4.20
2023-05-21T05:36:21.085Z,4.50
2023-05-21T05:38:47.476Z,4.78
2023-05-21T05:41:13.827Z,5.00
2023-05-21T05:43:40.218Z,4.70
2023-05-21T05:46:06.697Z,4.45
2023-05-21T05:48:33.173Z,4.18
2023-05-21T05:50:59.863Z,4.75
2023-05-21T05:53:26.258Z,4.88
2023-05-21T05:55:52.788Z,4.65
2023-05-21T05:58:19.322Z,4.88
2023-05-21T06:00:46.016Z,4.85
2023-05-21T06:03:12.700Z,5.00
2023-05-21T06:05:39.441Z,5.00
2023-05-21T06:08:06.336Z,5.00
2023-05-21T06:10:32.727Z,4.93
2023-05-21T06:12:59.092Z,4.95
2023-05-21T06:15:25.458Z,5.05
2023-05-21T06:17:51.875Z,4.95
2023-05-21T06:20:18.311Z,4.75
2023-05-21T06:22:44.705Z,5.28
2023-05-21T06:25:11.169Z,4.80
2023-05-21T06:27:38.557Z,4.80
2023-05-21T06:30:05.884Z,5.40
2023-05-21T06:34:58.832Z,4.72
2023-05-21T06:37:26.666Z,5.22
2023-05-21T06:39:53.186Z,5.28
2023-05-21T06:42:19.595Z,5.20
2023-05-21T06:44:46.030Z,5.05
2023-05-21T06:47:12.528Z,5.32
2023-05-21T06:49:39.018Z,5.13
2023-05-21T06:52:05.738Z,5.50
2023-05-21T06:54:32.171Z,4.47
2023-05-21T06:56:58.732Z,5.57
2023-05-21T06:59:25.108Z,5.15
2023-05-21T07:01:51.486Z,5.55
2023-05-21T07:04:17.900Z,5.32
2023-05-21T07:06:44.267Z,4.63
2023-05-21T07:09:10.733Z,5.63
2023-05-21T07:11:37.175Z,5.22
2023-05-21T07:14:03.981Z,5.00
2023-05-21T07:16:30.573Z,5.55
2023-05-21T07:18:57.077Z,5.00
2023-05-21T07:21:24.249Z,5.43
2023-05-21T07:23:50.696Z,5.55
2023-05-21T07:26:17.229Z,4.95
2023-05-21T07:28:43.744Z,5.20
2023-05-21T07:31:12.105Z,5.40
2023-05-21T07:33:38.634Z,4.75
2023-05-21T07:36:05.482Z,5.63
2023-05-21T07:38:32.394Z,5.20
2023-05-21T07:40:58.806Z,5.13
2023-05-21T07:43:25.242Z,4.95
2023-05-21T07:45:51.810Z,4.43
2023-05-21T07:48:18.818Z,4.80
2023-05-21T07:50:45.292Z,4.88
2023-05-21T07:53:11.771Z,5.40
2023-05-21T07:55:38.480Z,5.18
2023-05-21T07:58:05.091Z,4.80
2023-05-21T08:00:42.587Z,5.10
2023-05-21T08:03:09.010Z,4.45
2023-05-21T08:05:35.936Z,5.28
2023-05-21T08:10:29.017Z,4.85
2023-05-21T08:12:55.426Z,5.75
2023-05-21T08:15:22.333Z,4.70
2023-05-21T08:17:48.824Z,5.00
2023-05-21T08:20:15.462Z,4.82
2023-05-21T08:22:43.272Z,5.07
2023-05-21T08:25:09.887Z,5.38
2023-05-21T08:27:36.473Z,5.32
2023-05-21T08:30:02.974Z,4.97
2023-05-21T08:32:29.464Z,5.25
2023-05-21T08:34:56.378Z,5.55
2023-05-21T08:37:22.786Z,5.05
2023-05-21T08:39:49.142Z,4.95
2023-05-21T08:42:39.109Z,5.10
2023-05-21T08:45:09.091Z,4.88
2023-05-21T08:47:36.925Z,5.22
2023-05-21T08:50:04.867Z,5.30
2023-05-21T08:52:32.292Z,5.05
2023-05-21T08:54:59.797Z,5.03
2023-05-21T08:57:27.248Z,5.75
2023-05-21T08:59:54.737Z,5.18
2023-05-21T09:02:21.333Z,4.63
2023-05-21T09:04:49.735Z,5.00
2023-05-21T09:07:16.980Z,4.78
2023-05-21T09:09:57.650Z,4.82
2023-05-21T09:12:25.406Z,5.47
2023-05-21T09:14:52.494Z,4.97
2023-05-21T09:17:20.405Z,5.32
2023-05-21T09:20:13.214Z,4.85
2023-05-21T09:22:44.440Z,5.05
2023-05-21T09:25:13.673Z,5.28
2023-05-21T09:27:40.176Z,5.55
2023-05-21T09:30:14.984Z,5.05
2023-05-21T09:32:43.651Z,6.00
2023-05-21T09:35:15.908Z,5.10
2023-05-21T09:37:43.969Z,4.78
2023-05-21T09:40:18.380Z,5.13
2023-05-21T09:42:55.140Z,4.90
2023-05-21T09:45:23.829Z,5.43
2023-05-21T09:47:52.238Z,5.43
2023-05-21T09:50:26.968Z,5.15
2023-05-21T09:52:55.349Z,4.97
2023-05-21T09:55:26.564Z,5.18
2023-05-21T09:57:53.338Z,5.38
2023-05-21T10:02:55.187Z,5.97
2023-05-21T10:05:26.681Z,4.97
2023-05-21T10:07:56.749Z,5.10
2023-05-21T10:10:23.683Z,5.35
2023-05-21T10:12:58.335Z,5.40
2023-05-21T10:15:27.901Z,5.28
2023-05-21T10:17:55.881Z,5.15
2023-05-21T10:20:22.600Z,5.28
2023-05-21T10:22:50.549Z,4.63
2023-05-21T10:25:17.359Z,4.93
2023-05-21T10:27:44.887Z,5.40
2023-05-21T10:30:11.741Z,5.25
2023-05-21T10:32:40.493Z,4.70
2023-05-21T10:35:08.832Z,5.20
2023-05-21T10:37:35.606Z,5.05
2023-05-21T10:42:31.935Z,5.00
2023-05-21T10:45:04.036Z,5.47
2023-05-21T10:47:54.385Z,4.75
2023-05-21T10:50:57.577Z,5.13
2023-05-21T10:53:23.963Z,5.15
2023-05-21T10:56:06.653Z,5.05
2023-05-21T10:59:00.841Z,5.50
2023-05-21T11:01:34.043Z,5.45
2023-05-21T11:06:27.940Z,5.40
2023-05-21T11:08:55.530Z,5.75
2023-05-21T11:11:46.017Z,5.30
2023-05-21T11:14:36.696Z,5.78
2023-05-21T11:17:16.328Z,5.05
2023-05-21T11:19:47.005Z,5.88
2023-05-21T11:22:27.092Z,5.72
2023-05-21T11:24:55.479Z,5.72
2023-05-21T11:27:39.651Z,6.30
2023-05-21T11:30:10.452Z,5.95
2023-05-21T11:33:12.211Z,6.25
2023-05-21T11:35:44.951Z,5.78
2023-05-21T11:38:11.485Z,5.88
2023-05-21T11:40:38.375Z,5.97
2023-05-21T11:43:04.919Z,6.35
2023-05-21T11:45:32.859Z,5.95
2023-05-21T11:48:00.403Z,6.57
2023-05-21T11:50:28.317Z,6.43
2023-05-21T11:52:54.765Z,6.30
2023-05-21T11:55:22.806Z,6.10
2023-05-21T11:57:53.649Z,6.75
2023-05-21T12:00:20.136Z,6.60
2023-05-21T12:02:50.025Z,6.57
2023-05-21T12:05:16.968Z,6.47
2023-05-21T12:07:48.599Z,6.63
2023-05-21T12:10:15.078Z,7.00
2023-05-21T12:12:53.976Z,6.80
2023-05-21T12:15:22.719Z,7.05
2023-05-21T12:17:52.675Z,7.13
2023-05-21T12:20:19.971Z,6.75
2023-05-21T12:22:49.253Z,7.13
2023-05-21T12:25:19.826Z,6.72
2023-05-21T12:27:46.723Z,6.20
2023-05-21T12:30:13.624Z,7.07
2023-05-21T12:32:45.774Z,7.00
2023-05-21T12:35:23.485Z,7.40
2023-05-21T12:37:51.065Z,6.97
2023-05-21T12:40:18.109Z,7.20
2023-05-21T12:42:44.701Z,6.88
2023-05-21T12:45:11.555Z,7.05
2023-05-21T12:47:38.433Z,7.82
2023-05-21T12:50:08.505Z,7.47
2023-05-21T12:52:35.018Z,7.97
2023-05-21T12:57:35.793Z,7.68
2023-05-21T13:00:04.349Z,7.53
2023-05-21T13:02:38.663Z,7.78
2023-05-21T13:05:26.381Z,6.80
2023-05-21T13:07:52.735Z,7.20
2023-05-21T13:10:19.223Z,7.70
2023-05-21T13:12:46.280Z,7.50
2023-05-21T13:15:12.950Z,8.35
2023-05-21T13:20:13.143Z,7.70
2023-05-21T13:22:47.302Z,7.75
2023-05-21T13:25:16.394Z,7.60
2023-05-21T13:27:43.353Z,7.60
2023-05-21T13:30:11.732Z,7.65
2023-05-21T13:32:40.079Z,7.03
2023-05-21T13:35:07.160Z,7.30
2023-05-21T13:37:36.158Z,7.47
2023-05-21T13:40:10.338Z,7.20
2023-05-21T13:42:40.052Z,7.28
2023-05-21T13:45:08.928Z,7.00
2023-05-21T13:47:37.606Z,7.55
2023-05-21T13:50:07.149Z,7.65
2023-05-21T13:52:33.628Z,7.68
2023-05-21T13:55:00.186Z,7.72
2023-05-21T13:59:58.247Z,6.80
2023-05-21T14:02:24.892Z,6.93
2023-05-21T14:04:51.590Z,7.10
2023-05-21T14:07:18.099Z,7.75
2023-05-21T14:12:10.841Z,6.80
2023-05-21T14:14:37.816Z,6.65
2023-05-21T14:17:04.667Z,7.60
2023-05-21T14:19:31.691Z,7.35
2023-05-21T14:21:59.774Z,7.97
2023-05-21T14:24:26.207Z,7.22
2023-05-21T14:29:18.960Z,7.43
2023-05-21T14:31:46.286Z,6.95
2023-05-21T14:34:12.741Z,6.75
2023-05-21T14:36:39.288Z,7.35
2023-05-21T14:43:58.563Z,6.80
2023-05-21T14:48:51.756Z,6.75
2023-05-21T14:53:45.566Z,7.25
2023-05-21T14:56:11.998Z,7.38
2023-05-21T15:01:05.100Z,6.65
2023-05-21T15:03:31.664Z,6.60
2023-05-21T15:05:58.604Z,6.07
2023-05-21T15:08:25.428Z,5.10
2023-05-21T15:10:52.093Z,4.28
2023-05-21T15:13:18.834Z,4.63
2023-05-21T15:15:45.458Z,4.20
2023-05-21T15:18:11.951Z,4.35
2023-05-21T15:23:16.011Z,4.55
2023-05-21T15:25:42.990Z,4.80
2023-05-21T15:28:09.357Z,4.80
2023-05-21T15:30:35.732Z,4.40
2023-05-21T15:33:02.095Z,4.65
2023-05-21T15:35:28.599Z,4.80
2023-05-21T15:40:21.538Z,4.90
2023-05-21T15:42:47.975Z,5.20
2023-05-21T15:45:14.514Z,4.97
2023-05-21T15:47:42.689Z,4.55
2023-05-21T15:50:10.294Z,4.90
2023-05-21T15:52:37.060Z,4.88
2023-05-21T15:57:30.143Z,4.65
2023-05-21T15:59:56.570Z,5.22
2023-05-21T16:02:23.043Z,5.20
2023-05-21T16:04:51.635Z,4.88
2023-05-21T16:07:18.706Z,5.30
2023-05-21T16:09:45.147Z,4.65
2023-05-21T16:12:11.604Z,4.63
2023-05-21T16:14:37.987Z,4.43
2023-05-21T16:17:04.760Z,4.65
2023-05-21T16:21:58.045Z,5.15
2023-05-21T16:24:24.510Z,4.90
2023-05-21T16:26:50.913Z,5.60
2023-05-21T16:29:17.328Z,4.68
2023-05-21T16:31:43.868Z,5.07
2023-05-21T16:34:10.433Z,4.95
2023-05-21T16:36:38.218Z,5.10
2023-05-21T16:39:04.616Z,5.20
2023-05-21T16:41:31.137Z,5.00
2023-05-21T16:43:57.519Z,5.05
2023-05-21T16:46:24.005Z,5.60
2023-05-21T16:48:50.597Z,5.30
2023-05-21T16:51:17.009Z,5.68
2023-05-21T16:53:43.436Z,5.78
2023-05-21T16:56:09.871Z,5.28
2023-05-21T16:58:36.346Z,6.45
2023-05-21T17:01:03.602Z,5.70
2023-05-21T17:03:32.361Z,5.50
2023-05-21T17:05:59.039Z,5.53
2023-05-21T17:08:25.420Z,5.47
2023-05-21T17:10:51.904Z,6.20
2023-05-21T17:13:22.702Z,5.45
2023-05-21T17:15:53.110Z,5.10
2023-05-21T17:18:19.646Z,5.63
2023-05-21T17:20:46.119Z,5.95
2023-05-21T17:23:12.704Z,6.05
2023-05-21T17:25:39.893Z,6.30
2023-05-21T17:28:06.706Z,6.30
2023-05-21T17:30:33.439Z,5.80
2023-05-21T17:33:02.075Z,6.00
2023-05-21T17:35:28.573Z,6.72
2023-05-21T17:37:55.210Z,7.00
2023-05-21T17:40:24.208Z,6.18
2023-05-21T17:42:51.731Z,7.25
2023-05-21T17:45:18.502Z,7.28
2023-05-21T17:47:44.970Z,7.13
2023-05-21T17:50:11.546Z,9.32
2023-05-21T17:52:38.113Z,8.10
2023-05-21T17:55:05.134Z,7.50
2023-05-21T17:57:31.562Z,7.45
2023-05-21T17:59:58.065Z,7.63
2023-05-21T18:02:25.320Z,7.68
2023-05-21T18:04:51.693Z,8.45
2023-05-21T18:07:18.048Z,7.55
2023-05-21T18:09:44.463Z,7.75
2023-05-21T18:12:11.062Z,8.68
2023-05-21T18:14:37.501Z,8.38
2023-05-21T18:17:04.171Z,8.20
2023-05-21T18:19:33.679Z,8.70
2023-05-21T18:22:00.176Z,8.40
2023-05-21T18:24:26.609Z,8.82
2023-05-21T18:26:53.026Z,9.27
2023-05-21T18:29:19.466Z,9.50
2023-05-21T18:31:46.040Z,8.55
2023-05-21T18:34:12.666Z,9.15
2023-05-21T18:36:39.993Z,8.18
2023-05-21T18:39:09.764Z,8.93
2023-05-21T18:41:37.178Z,9.63
2023-05-21T18:44:04.038Z,8.80
2023-05-21T18:46:31.583Z,8.93
2023-05-21T18:49:00.060Z,9.93
2023-05-21T18:51:26.564Z,9.40
2023-05-21T18:53:53.195Z,9.38
2023-05-21T18:56:19.632Z,10.35
2023-05-21T18:58:46.246Z,9.82
2023-05-21T19:01:12.761Z,10.02
2023-05-21T19:03:39.357Z,10.43
2023-05-21T19:06:05.838Z,9.98
2023-05-21T19:08:32.242Z,10.30
2023-05-21T19:10:58.610Z,10.32
2023-05-21T19:13:26.209Z,10.13
2023-05-21T19:15:52.685Z,9.98
2023-05-21T19:18:19.169Z,9.73
2023-05-21T19:20:45.554Z,10.63
2023-05-21T19:23:12.084Z,9.75
2023-05-21T19:25:38.577Z,11.02
2023-05-21T19:28:05.362Z,10.18
2023-05-21T19:30:34.793Z,10.80
2023-05-21T19:33:01.609Z,10.27
2023-05-21T19:35:28.151Z,10.45
2023-05-21T19:37:58.625Z,10.00
2023-05-21T19:40:25.373Z,10.50
2023-05-21T19:42:51.745Z,10.82
2023-05-21T19:45:18.146Z,10.10
2023-05-21T19:47:44.604Z,10.18
2023-05-21T19:50:11.688Z,10.55
2023-05-21T19:52:39.083Z,10.60
2023-05-21T19:55:08.531Z,10.40
2023-05-21T19:57:34.886Z,10.77
2023-05-21T20:00:01.318Z,10.60
2023-05-21T20:02:30.568Z,10.25
2023-05-21T20:04:58.693Z,9.63
2023-05-21T20:07:25.122Z,11.07
2023-05-21T20:09:52.239Z,10.00
2023-05-21T20:12:18.770Z,10.27
2023-05-21T20:14:49.497Z,10.98
2023-05-21T20:17:18.758Z,11.27
2023-05-21T20:19:48.034Z,10.02
2023-05-21T20:22:17.764Z,10.95
2023-05-21T20:24:44.163Z,10.02
2023-05-21T20:27:10.525Z,11.85
2023-05-21T20:29:36.898Z,9.68
2023-05-21T20:32:03.406Z,10.05
2023-05-21T20:34:29.854Z,9.63
2023-05-21T20:36:58.174Z,10.60
2023-05-21T20:39:27.175Z,10.38
2023-05-21T20:41:54.915Z,9.45
2023-05-21T20:44:22.410Z,10.43
2023-05-21T20:46:49.082Z,9.98
2023-05-21T20:49:15.642Z,10.15
2023-05-21T20:51:42.355Z,10.95
2023-05-21T20:54:09.829Z,9.77
2023-05-21T20:56:42.118Z,10.65
2023-05-21T20:59:10.892Z,11.18
2023-05-21T21:01:38.087Z,10.02
2023-05-21T21:04:04.916Z,10.93
2023-05-21T21:06:31.793Z,10.80
2023-05-21T21:08:58.397Z,10.82
2023-05-21T21:11:24.941Z,11.20
2023-05-21T21:13:51.848Z,10.52
2023-05-21T21:16:18.472Z,10.52
2023-05-21T21:18:46.710Z,10.63
2023-05-21T21:21:13.172Z,11.15
2023-05-21T21:23:39.612Z,10.18
2023-05-21T21:26:06.123Z,11.20
2023-05-21T21:28:32.468Z,10.65
2023-05-21T21:30:58.877Z,11.25
2023-05-21T21:33:26.603Z,11.52
2023-05-21T21:35:53.193Z,10.80
2023-05-21T21:38:19.615Z,11.05
2023-05-21T21:40:46.051Z,11.27
2023-05-21T21:43:12.496Z,11.32
2023-05-21T21:45:38.941Z,11.82
2023-05-21T21:48:05.757Z,12.20
2023-05-21T21:50:32.197Z,11.10
2023-05-21T21:52:59.801Z,12.20
2023-05-21T21:55:26.393Z,10.95
2023-05-21T21:57:52.806Z,11.90
2023-05-21T22:00:19.506Z,11.80
2023-05-21T22:02:46.661Z,11.30
2023-05-21T22:05:14.615Z,12.23
2023-05-21T22:07:42.537Z,11.95
2023-05-21T22:10:09.402Z,11.55
2023-05-21T22:12:35.957Z,11.70
2023-05-21T22:15:05.220Z,12.20
2023-05-21T22:17:32.681Z,12.20
2023-05-21T22:22:25.962Z,11.60
2023-05-21T22:24:53.155Z,11.45
2023-05-21T22:27:20.588Z,11.48
2023-05-21T22:29:47.027Z,12.85
2023-05-21T22:32:13.827Z,12.35
2023-05-21T22:34:41.752Z,12.57
2023-05-21T22:37:08.124Z,12.18
2023-05-21T22:39:34.518Z,13.23
2023-05-21T22:42:01.448Z,12.98
2023-05-21T22:44:27.875Z,12.68
2023-05-21T22:46:56.283Z,12.48
2023-05-21T22:49:22.821Z,13.50
2023-05-21T22:51:49.468Z,12.48
2023-05-21T22:54:15.973Z,12.45
2023-05-21T22:56:42.390Z,13.15
2023-05-21T22:59:08.779Z,12.93
2023-05-21T23:01:36.898Z,13.07
2023-05-21T23:04:03.774Z,13.38
2023-05-21T23:06:30.597Z,13.13
2023-05-21T23:08:57.061Z,12.82
2023-05-21T23:11:23.551Z,13.48
2023-05-21T23:13:49.954Z,15.20
2023-05-21T23:16:16.877Z,13.82
2023-05-21T23:18:43.318Z,14.10
2023-05-21T23:21:09.943Z,13.45
2023-05-21T23:23:36.421Z,13.85
2023-05-21T23:26:02.856Z,13.77
2023-05-21T23:28:29.316Z,14.55
2023-05-21T23:30:55.908Z,12.55
2023-05-21T23:33:22.406Z,14.93
2023-05-21T23:35:48.780Z,14.13
2023-05-21T23:38:15.300Z,14.77
2023-05-21T23:40:42.171Z,13.88
2023-05-21T23:43:08.645Z,14.93
2023-05-21T23:45:35.053Z,14.02
2023-05-21T23:48:01.542Z,15.32
2023-05-21T23:50:27.959Z,14.80
2023-05-21T23:52:54.469Z,15.15
2023-05-21T23:55:20.919Z,14.93
2023-05-21T23:57:47.298Z,14.90
